createdAt,value
2022-10-06T00:00:19.706Z,100534.09
2022-10-06T00:01:51.632Z,100536.44
2022-10-06T00:03:23.630Z,100547.13
2022-10-06T00:04:55.560Z,100540.97
2022-10-06T00:06:27.447Z,100549.25
2022-10-06T00:08:00.081Z,100543.81
2022-10-06T00:09:31.965Z,100547.78
2022-10-06T00:11:04.716Z,100563.28
2022-10-06T00:12:54.702Z,100562.53
2022-10-06T00:14:26.933Z,100556.16
2022-10-06T00:16:00.185Z,100560.13
2022-10-06T00:17:32.329Z,100554.69
2022-10-06T00:19:04.212Z,100547.28
2022-10-06T00:20:36.196Z,100545.50
2022-10-06T00:22:08.056Z,100553.28
2022-10-06T00:23:40.077Z,100545.56
2022-10-06T00:25:12.808Z,100551.00
2022-10-06T00:26:46.248Z,100551.72
2022-10-06T00:28:18.125Z,100550.47
2022-10-06T00:29:50.807Z,100552.47
2022-10-06T00:31:22.740Z,100551.00
2022-10-06T00:32:58.732Z,100553.00
2022-10-06T00:34:30.630Z,100561.84
2022-10-06T00:36:02.618Z,100560.41
2022-10-06T00:37:36.221Z,100553.72
2022-10-06T00:39:08.183Z,100555.69
2022-10-06T00:40:44.292Z,100556.75
2022-10-06T00:42:26.835Z,100564.34
2022-10-06T00:43:58.997Z,100561.44
2022-10-06T00:45:31.038Z,100567.38
2022-10-06T00:47:03.905Z,100563.97
2022-10-06T00:48:36.329Z,100567.94
2022-10-06T00:50:10.175Z,100561.59
2022-10-06T00:51:44.371Z,100552.34
2022-10-06T00:53:17.109Z,100560.28
2022-10-06T00:54:49.305Z,100553.00
2022-10-06T00:56:21.214Z,100556.81
2022-10-06T00:57:53.665Z,100551.69
2022-10-06T00:59:25.607Z,100554.56
2022-10-06T01:00:57.730Z,100552.19
2022-10-06T01:02:36.619Z,100553.06
2022-10-06T01:04:11.441Z,100543.78
2022-10-06T01:05:46.374Z,100546.66
2022-10-06T01:07:19.453Z,100547.91
2022-10-06T01:08:51.733Z,100545.38
2022-10-06T01:10:24.039Z,100538.00
2022-10-06T01:11:57.464Z,100548.50
2022-10-06T01:13:29.586Z,100549.22
2022-10-06T01:15:01.736Z,100561.16
2022-10-06T01:16:37.920Z,100559.47
2022-10-06T01:18:15.086Z,100560.91
2022-10-06T01:20:22.469Z,100562.47
2022-10-06T01:21:54.980Z,100563.31
2022-10-06T01:23:27.113Z,100564.22
2022-10-06T01:24:59.475Z,100564.75
2022-10-06T01:26:32.745Z,100560.78
2022-10-06T01:28:05.877Z,100562.34
2022-10-06T01:29:38.266Z,100563.72
2022-10-06T01:31:10.367Z,100563.69
2022-10-06T01:32:42.851Z,100571.59
2022-10-06T01:34:14.787Z,100581.53
2022-10-06T01:35:48.526Z,100575.91
2022-10-06T01:37:20.391Z,100573.00
2022-10-06T01:38:52.491Z,100573.31
2022-10-06T01:40:25.682Z,100572.69
2022-10-06T01:41:57.613Z,100572.28
2022-10-06T01:43:29.710Z,100571.69
2022-10-06T01:45:02.229Z,100571.28
2022-10-06T01:46:35.883Z,100569.13
2022-10-06T01:48:09.113Z,100558.59
2022-10-06T01:49:41.039Z,100550.78
2022-10-06T01:51:16.818Z,100553.81
2022-10-06T01:52:48.721Z,100552.13
2022-10-06T01:54:20.631Z,100547.06
2022-10-06T01:55:57.181Z,100545.97
2022-10-06T01:57:30.316Z,100549.63
2022-10-06T01:59:02.266Z,100548.38
2022-10-06T02:00:34.204Z,100553.38
2022-10-06T02:02:06.243Z,100546.31
2022-10-06T02:03:38.737Z,100542.88
2022-10-06T02:05:10.966Z,100546.31
2022-10-06T02:06:46.380Z,100542.16
2022-10-06T02:08:18.318Z,100549.41
2022-10-06T02:09:50.868Z,100549.63
2022-10-06T02:11:22.846Z,100546.53
2022-10-06T02:12:55.504Z,100547.06
2022-10-06T02:14:27.986Z,100555.78
2022-10-06T02:15:59.917Z,100557.25
2022-10-06T02:17:32.259Z,100546.22
2022-10-06T02:19:04.200Z,100559.22
2022-10-06T02:20:36.239Z,100557.97
2022-10-06T02:22:08.102Z,100556.22
2022-10-06T02:23:40.787Z,100554.75
2022-10-06T02:25:12.657Z,100554.53
2022-10-06T02:26:44.550Z,100551.63
2022-10-06T02:28:16.975Z,100557.97
2022-10-06T02:29:50.140Z,100558.91
2022-10-06T02:31:22.273Z,100556.94
2022-10-06T02:32:54.236Z,100557.13
2022-10-06T02:34:26.110Z,100561.28
2022-10-06T02:35:58.933Z,100553.66
2022-10-06T02:37:32.835Z,100556.94
2022-10-06T02:39:06.377Z,100558.19
2022-10-06T02:40:38.295Z,100553.81
2022-10-06T02:42:11.222Z,100559.22
2022-10-06T02:43:44.610Z,100549.63
2022-10-06T02:45:16.633Z,100546.94
2022-10-06T02:46:49.306Z,100546.22
2022-10-06T02:48:24.352Z,100549.41
2022-10-06T02:49:56.237Z,100552.13
2022-10-06T02:51:28.449Z,100559.94
2022-10-06T02:53:00.287Z,100551.09
2022-10-06T02:54:35.418Z,100549.63
2022-10-06T02:56:08.986Z,100546.41
2022-10-06T02:57:40.898Z,100550.38
2022-10-06T02:59:12.786Z,100550.06
2022-10-06T03:00:46.699Z,100557.63
2022-10-06T03:02:18.698Z,100557.63
2022-10-06T03:03:50.763Z,100557.31
2022-10-06T03:05:23.047Z,100554.09
2022-10-06T03:06:56.242Z,100560.63
2022-10-06T03:08:29.838Z,100562.31
2022-10-06T03:10:02.289Z,100564.50
2022-10-06T03:11:35.390Z,100561.78
2022-10-06T03:13:08.389Z,100560.31
2022-10-06T03:14:40.282Z,100559.81
2022-10-06T03:16:45.761Z,100554.41
2022-10-06T03:18:26.599Z,100562.16
2022-10-06T03:19:59.240Z,100562.91
2022-10-06T03:21:33.177Z,100564.88
2022-10-06T03:23:05.001Z,100577.69
2022-10-06T03:24:36.952Z,100573.75
2022-10-06T03:26:09.765Z,100577.38
2022-10-06T03:27:41.729Z,100579.59
2022-10-06T03:29:13.843Z,100578.13
2022-10-06T03:30:48.966Z,100573.94
2022-10-06T03:32:22.891Z,100577.19
2022-10-06T03:33:56.620Z,100584.59
2022-10-06T03:35:31.144Z,100583.53
2022-10-06T03:37:03.486Z,100591.88
2022-10-06T03:38:35.585Z,100580.72
2022-10-06T03:40:07.849Z,100587.06
2022-10-06T03:41:41.104Z,100579.97
2022-10-06T03:43:14.636Z,100586.13
2022-10-06T03:44:46.806Z,100576.75
2022-10-06T03:46:20.252Z,100584.34
2022-10-06T03:47:54.883Z,100575.69
2022-10-06T03:49:26.935Z,100576.44
2022-10-06T03:51:00.445Z,100580.59
2022-10-06T03:52:32.595Z,100582.78
2022-10-06T03:54:04.852Z,100584.75
2022-10-06T03:55:39.001Z,100579.53
2022-10-06T03:57:10.931Z,100583.88
2022-10-06T03:58:44.612Z,100586.28
2022-10-06T04:00:17.087Z,100590.47
2022-10-06T04:01:52.999Z,100589.19
2022-10-06T04:03:30.368Z,100594.81
2022-10-06T04:05:02.326Z,100590.66
2022-10-06T04:06:36.303Z,100590.47
2022-10-06T04:08:09.063Z,100595.69
2022-10-06T04:09:41.168Z,100601.09
2022-10-06T04:11:16.725Z,100603.81
2022-10-06T04:12:48.703Z,100600.38
2022-10-06T04:14:20.714Z,100597.44
2022-10-06T04:15:52.615Z,100597.25
2022-10-06T04:17:24.510Z,100601.94
2022-10-06T04:18:57.509Z,100598.69
2022-10-06T04:20:29.679Z,100602.38
2022-10-06T04:22:01.832Z,100606.00
2022-10-06T04:23:36.569Z,100602.03
2022-10-06T04:25:08.718Z,100600.22
2022-10-06T04:26:41.990Z,100610.03
2022-10-06T04:28:13.897Z,100599.94
2022-10-06T04:29:45.857Z,100612.41
2022-10-06T04:31:22.515Z,100605.94
2022-10-06T04:32:55.034Z,100610.13
2022-10-06T04:34:27.099Z,100606.88
2022-10-06T04:36:04.061Z,100609.78
2022-10-06T04:37:35.932Z,100609.78
2022-10-06T04:39:10.840Z,100606.34
2022-10-06T04:40:43.685Z,100617.91
2022-10-06T04:42:15.572Z,100617.56
2022-10-06T04:43:47.957Z,100618.53
2022-10-06T04:45:20.830Z,100618.00
2022-10-06T04:46:52.889Z,100620.69
2022-10-06T04:48:26.915Z,100621.63
2022-10-06T04:49:59.117Z,100629.22
2022-10-06T04:51:31.117Z,100629.94
2022-10-06T04:53:04.304Z,100630.69
2022-10-06T04:54:36.842Z,100627.97
2022-10-06T04:56:12.877Z,100635.59
2022-10-06T04:57:44.801Z,100632.34
2022-10-06T04:59:16.779Z,100629.63
2022-10-06T05:00:50.089Z,100637.28
2022-10-06T05:02:22.755Z,100628.56
2022-10-06T05:03:58.754Z,100626.03
2022-10-06T05:05:32.246Z,100634.41
2022-10-06T05:07:04.134Z,100629.19
2022-10-06T05:08:36.112Z,100624.84
2022-10-06T05:10:08.218Z,100631.94
2022-10-06T05:11:40.216Z,100630.88
2022-10-06T05:13:14.696Z,100634.72
2022-10-06T05:14:47.047Z,100637.63
2022-10-06T05:16:19.855Z,100635.63
2022-10-06T05:17:51.799Z,100638.75
2022-10-06T05:19:23.706Z,100636.41
2022-10-06T05:21:04.411Z,100637.34
2022-10-06T05:22:38.431Z,100633.78
2022-10-06T05:24:10.329Z,100630.72
2022-10-06T05:25:50.047Z,100634.88
2022-10-06T05:27:21.940Z,100640.53
2022-10-06T05:28:54.477Z,100643.63
2022-10-06T05:30:26.747Z,100646.03
2022-10-06T05:31:58.989Z,100646.38
2022-10-06T05:33:34.604Z,100648.56
2022-10-06T05:35:07.881Z,100650.25
2022-10-06T05:36:40.333Z,100655.84
2022-10-06T05:38:13.590Z,100659.28
2022-10-06T05:39:46.718Z,100664.38
2022-10-06T05:41:21.075Z,100657.69
2022-10-06T05:42:55.136Z,100667.66
2022-10-06T05:44:27.127Z,100663.72
2022-10-06T05:46:02.559Z,100661.19
2022-10-06T05:47:34.631Z,100668.06
2022-10-06T05:49:12.939Z,100668.06
2022-10-06T05:50:58.044Z,100672.25
2022-10-06T05:52:29.941Z,100672.97
2022-10-06T05:54:02.654Z,100672.97
2022-10-06T05:55:34.565Z,100678.22
2022-10-06T05:57:06.473Z,100686.34
2022-10-06T05:58:40.535Z,100687.09
2022-10-06T06:00:12.894Z,100674.97
2022-10-06T06:01:50.426Z,100682.38
2022-10-06T06:03:31.138Z,100684.38
2022-10-06T06:05:03.287Z,100692.72
2022-10-06T06:06:39.017Z,100690.34
2022-10-06T06:08:14.333Z,100692.34
2022-10-06T06:09:46.579Z,100690.16
2022-10-06T06:11:18.817Z,100694.63
2022-10-06T06:12:50.766Z,100702.06
2022-10-06T06:15:09.484Z,100699.16
2022-10-06T06:16:46.672Z,100706.59
2022-10-06T06:18:18.695Z,100709.63
2022-10-06T06:19:50.601Z,100711.59
2022-10-06T06:21:22.819Z,100712.34
2022-10-06T06:22:54.971Z,100723.72
2022-10-06T06:24:30.493Z,100725.03
2022-10-06T06:26:05.056Z,100722.63
2022-10-06T06:27:40.644Z,100730.56
2022-10-06T06:29:12.533Z,100729.31
2022-10-06T06:30:48.802Z,100733.28
2022-10-06T06:32:20.683Z,100722.97
2022-10-06T06:33:54.871Z,100734.75
2022-10-06T06:35:28.914Z,100733.19
2022-10-06T06:37:07.528Z,100735.31
2022-10-06T06:38:39.892Z,100749.31
2022-10-06T06:40:11.893Z,100740.81
2022-10-06T06:41:46.200Z,100749.56
2022-10-06T06:43:45.355Z,100744.25
2022-10-06T06:45:37.579Z,100741.59
2022-10-06T06:47:30.271Z,100739.91
2022-10-06T06:49:04.871Z,100753.66
2022-10-06T06:50:39.899Z,100744.34
2022-10-06T06:52:11.935Z,100751.22
2022-10-06T06:53:45.730Z,100746.13
2022-10-06T06:55:18.510Z,100758.69
2022-10-06T06:56:52.020Z,100754.66
2022-10-06T06:58:25.528Z,100754.50
2022-10-06T07:00:02.646Z,100761.25
2022-10-06T07:01:36.808Z,100762.28
2022-10-06T07:03:12.488Z,100768.56
2022-10-06T07:04:44.482Z,100763.34
2022-10-06T07:06:19.721Z,100772.56
2022-10-06T07:07:51.718Z,100769.13
2022-10-06T07:09:26.031Z,100764.44
2022-10-06T07:11:13.517Z,100765.06
2022-10-06T07:12:46.262Z,100771.47
2022-10-06T07:14:18.488Z,100777.09
2022-10-06T07:16:11.619Z,100775.63
2022-10-06T07:18:02.360Z,100776.97
2022-10-06T07:19:47.475Z,100773.81
2022-10-06T07:21:38.863Z,100784.13
2022-10-06T07:23:34.415Z,100779.16
2022-10-06T07:25:15.897Z,100770.25
2022-10-06T07:26:51.692Z,100785.97
2022-10-06T07:28:24.801Z,100785.66
2022-10-06T07:29:57.492Z,100786.34
2022-10-06T07:31:33.592Z,100778.00
2022-10-06T07:33:05.843Z,100774.69
2022-10-06T07:34:39.805Z,100785.81
2022-10-06T07:36:11.756Z,100790.25
2022-10-06T07:37:44.670Z,100777.88
2022-10-06T07:39:16.589Z,100788.00
2022-10-06T07:41:23.239Z,100794.06
2022-10-06T07:42:48.805Z,100793.06
2022-10-06T07:44:28.774Z,100791.31
2022-10-06T07:46:01.070Z,100793.75
2022-10-06T07:47:43.526Z,100789.16
2022-10-06T07:49:17.522Z,100795.63
2022-10-06T07:50:51.225Z,100798.06
2022-10-06T07:52:28.984Z,100800.00
2022-10-06T07:54:01.734Z,100806.94
2022-10-06T07:55:41.738Z,100802.47
2022-10-06T07:57:25.049Z,100805.50
2022-10-06T07:58:58.759Z,100794.28
2022-10-06T08:00:30.741Z,100801.25
2022-10-06T08:02:02.745Z,100799.94
2022-10-06T08:03:36.628Z,100796.72
2022-10-06T08:05:08.756Z,100806.94
2022-10-06T08:06:41.976Z,100805.75
2022-10-06T08:08:16.875Z,100808.25
2022-10-06T08:09:48.831Z,100804.50
2022-10-06T08:11:21.735Z,100812.47
2022-10-06T08:12:53.633Z,100814.38
2022-10-06T08:14:25.544Z,100810.34
2022-10-06T08:16:03.395Z,100807.00
2022-10-06T08:17:36.543Z,100810.72
2022-10-06T08:19:08.487Z,100810.72
2022-10-06T08:20:41.028Z,100820.78
2022-10-06T08:22:16.013Z,100807.75
2022-10-06T08:23:48.615Z,100812.47
2022-10-06T08:25:20.916Z,100820.31
2022-10-06T08:26:52.844Z,100814.75
2022-10-06T08:28:25.200Z,100818.91
2022-10-06T08:29:57.149Z,100817.41
2022-10-06T08:31:29.671Z,100819.81
2022-10-06T08:33:01.654Z,100823.84
2022-10-06T08:34:33.536Z,100826.28
2022-10-06T08:36:08.739Z,100824.97
2022-10-06T08:37:40.869Z,100823.84
2022-10-06T08:39:12.870Z,100821.84
2022-10-06T08:40:46.568Z,100823.84
2022-10-06T08:42:29.005Z,100819.09
2022-10-06T08:44:06.651Z,100822.56
2022-10-06T08:45:42.317Z,100828.59
2022-10-06T08:47:18.755Z,100816.19
2022-10-06T08:48:50.913Z,100813.63
2022-10-06T08:50:25.555Z,100818.28
2022-10-06T08:52:05.871Z,100810.63
2022-10-06T08:53:40.790Z,100815.53
2022-10-06T08:55:18.767Z,100811.09
2022-10-06T08:56:52.043Z,100814.72
2022-10-06T08:58:29.037Z,100814.31
2022-10-06T09:00:01.394Z,100816.66
2022-10-06T09:01:39.022Z,100816.38
2022-10-06T09:03:17.097Z,100817.56
2022-10-06T09:04:50.935Z,100820.63
2022-10-06T09:06:34.597Z,100817.47
2022-10-06T09:08:12.763Z,100814.31
2022-10-06T09:09:57.118Z,100814.06
2022-10-06T09:11:34.886Z,100818.13
2022-10-06T09:13:09.510Z,100807.78
2022-10-06T09:14:44.234Z,100821.94
2022-10-06T09:16:18.760Z,100813.63
2022-10-06T09:17:55.563Z,100826.88
2022-10-06T09:19:35.236Z,100819.84
2022-10-06T09:21:11.338Z,100823.19
2022-10-06T09:22:44.403Z,100812.84
2022-10-06T09:24:18.123Z,100822.38
2022-10-06T09:25:50.280Z,100817.63
2022-10-06T09:27:24.176Z,100817.06
2022-10-06T09:28:56.501Z,100811.56
2022-10-06T09:30:28.478Z,100818.97
2022-10-06T09:32:02.988Z,100832.69
2022-10-06T09:33:39.879Z,100827.75
2022-10-06T09:35:17.072Z,100829.47
2022-10-06T09:37:01.557Z,100815.94
2022-10-06T09:38:45.541Z,100823.88
2022-10-06T09:40:49.052Z,100829.03
2022-10-06T09:42:29.680Z,100829.75
2022-10-06T09:44:03.623Z,100833.81
2022-10-06T09:45:35.608Z,100824.53
2022-10-06T09:47:26.878Z,100826.38
2022-10-06T09:49:11.126Z,100828.97
2022-10-06T09:50:43.117Z,100831.09
2022-10-06T09:52:16.249Z,100830.06
2022-10-06T09:54:24.474Z,100821.66
2022-10-06T09:55:56.657Z,100822.47
2022-10-06T09:57:28.605Z,100823.72
2022-10-06T09:59:01.838Z,100829.06
2022-10-06T10:00:34.867Z,100831.75
2022-10-06T10:02:21.860Z,100828.81
2022-10-06T10:04:21.131Z,100834.00
2022-10-06T10:05:56.868Z,100828.88
2022-10-06T10:07:30.114Z,100831.31
2022-10-06T10:09:21.702Z,100830.81
2022-10-06T10:11:39.162Z,100823.72
2022-10-06T10:13:18.832Z,100835.09
2022-10-06T10:14:54.484Z,100838.81
2022-10-06T10:16:34.859Z,100835.59
2022-10-06T10:18:17.147Z,100843.06
2022-10-06T10:19:53.064Z,100837.97
2022-10-06T10:21:26.223Z,100832.47
2022-10-06T10:23:03.306Z,100834.13
2022-10-06T10:24:35.153Z,100828.91
2022-10-06T10:26:17.634Z,100834.53
2022-10-06T10:27:55.792Z,100838.72
2022-10-06T10:29:38.979Z,100845.06
2022-10-06T10:31:14.122Z,100830.81
2022-10-06T10:32:48.947Z,100829.66
2022-10-06T10:34:39.294Z,100833.25
2022-10-06T10:36:12.943Z,100822.47
2022-10-06T10:37:52.132Z,100822.88
2022-10-06T10:39:35.977Z,100828.16
2022-10-06T10:41:13.396Z,100829.38
2022-10-06T10:42:50.025Z,100829.97
2022-10-06T10:44:35.945Z,100829.75
2022-10-06T10:46:22.469Z,100839.22
2022-10-06T10:47:55.524Z,100832.78
2022-10-06T10:49:31.418Z,100835.03
2022-10-06T10:51:14.163Z,100837.19
2022-10-06T10:52:47.006Z,100834.66
2022-10-06T10:54:21.400Z,100830.81
2022-10-06T10:55:53.629Z,100839.94
2022-10-06T10:57:30.566Z,100840.91
2022-10-06T10:59:11.070Z,100835.00
2022-10-06T11:00:46.000Z,100840.88
2022-10-06T11:02:18.026Z,100835.47
2022-10-06T11:03:58.998Z,100841.84
2022-10-06T11:05:37.650Z,100835.13
2022-10-06T11:07:23.393Z,100833.78
2022-10-06T11:09:10.898Z,100838.25
2022-10-06T11:10:55.940Z,100834.97
2022-10-06T11:12:46.701Z,100835.81
2022-10-06T11:14:42.285Z,100829.22
2022-10-06T11:16:20.864Z,100840.09
2022-10-06T11:17:53.810Z,100834.09
2022-10-06T11:19:52.341Z,100829.53
2022-10-06T11:21:31.571Z,100834.28
2022-10-06T11:23:06.792Z,100831.25
2022-10-06T11:24:48.478Z,100833.63
2022-10-06T11:26:26.532Z,100830.59
2022-10-06T11:28:03.667Z,100829.38
2022-10-06T11:29:43.187Z,100828.16
2022-10-06T11:31:22.671Z,100830.94
2022-10-06T11:33:04.082Z,100827.56
2022-10-06T11:34:36.354Z,100822.28
2022-10-06T11:36:13.484Z,100818.41
2022-10-06T11:37:56.032Z,100820.66
2022-10-06T11:39:46.936Z,100814.75
2022-10-06T11:41:32.092Z,100823.13
2022-10-06T11:43:07.440Z,100823.31
2022-10-06T11:44:42.620Z,100809.88
2022-10-06T11:46:28.385Z,100808.22
2022-10-06T11:48:14.793Z,100814.91
2022-10-06T11:49:54.858Z,100816.66
2022-10-06T11:51:28.187Z,100817.06
2022-10-06T11:53:00.327Z,100816.66
2022-10-06T11:54:50.099Z,100814.22
2022-10-06T11:56:22.063Z,100814.53
2022-10-06T11:58:42.777Z,100811.16
2022-10-06T12:00:14.892Z,100814.63
2022-10-06T12:01:47.847Z,100805.63
2022-10-06T12:03:29.085Z,100809.00
2022-10-06T12:05:35.651Z,100806.81
2022-10-06T12:07:02.360Z,100805.19
2022-10-06T12:08:38.839Z,100803.06
2022-10-06T12:10:29.408Z,100807.75
2022-10-06T12:12:05.939Z,100806.31
2022-10-06T12:14:26.611Z,100799.47
2022-10-06T12:17:54.212Z,100801.00
2022-10-06T12:19:31.051Z,100799.16
2022-10-06T12:21:23.306Z,100798.31
2022-10-06T12:23:11.448Z,100803.25
2022-10-06T12:24:45.894Z,100799.94
2022-10-06T12:26:29.702Z,100797.53
2022-10-06T12:28:10.923Z,100797.53
2022-10-06T12:29:47.042Z,100795.75
2022-10-06T12:31:37.922Z,100795.97
2022-10-06T12:33:16.805Z,100798.94
2022-10-06T12:34:54.755Z,100798.50
2022-10-06T12:36:28.755Z,100794.63
2022-10-06T12:38:06.092Z,100797.59
2022-10-06T12:39:38.210Z,100798.38
2022-10-06T12:41:13.809Z,100793.75
2022-10-06T12:42:45.737Z,100796.13
2022-10-06T12:44:26.006Z,100789.25
2022-10-06T12:45:58.103Z,100796.84
2022-10-06T12:47:34.792Z,100798.06
2022-10-06T12:49:26.652Z,100794.28
2022-10-06T12:51:19.118Z,100794.00
2022-10-06T12:53:05.913Z,100791.75
2022-10-06T12:54:43.168Z,100796.03
2022-10-06T12:56:23.779Z,100784.97
2022-10-06T12:57:55.843Z,100789.91
2022-10-06T12:59:28.967Z,100787.84
2022-10-06T13:01:11.874Z,100786.41
2022-10-06T13:02:44.093Z,100785.81
2022-10-06T13:04:36.733Z,100787.84
2022-10-06T13:06:09.519Z,100787.13
2022-10-06T13:07:57.311Z,100779.84
2022-10-06T13:09:29.283Z,100775.34
2022-10-06T13:11:13.187Z,100785.84
2022-10-06T13:12:47.224Z,100778.56
2022-10-06T13:14:19.151Z,100776.69
2022-10-06T13:15:52.162Z,100772.00
2022-10-06T13:17:24.101Z,100777.53
2022-10-06T13:18:57.276Z,100777.63
2022-10-06T13:20:51.162Z,100779.03
2022-10-06T13:22:23.398Z,100775.56
2022-10-06T13:23:55.635Z,100782.63
2022-10-06T13:25:34.396Z,100779.25
2022-10-06T13:27:06.290Z,100780.75
2022-10-06T13:28:44.116Z,100783.72
2022-10-06T13:30:21.267Z,100779.72
2022-10-06T13:31:54.777Z,100783.91
2022-10-06T13:33:29.055Z,100772.13
2022-10-06T13:35:01.415Z,100782.91
2022-10-06T13:36:37.244Z,100783.53
2022-10-06T13:38:10.024Z,100787.53
2022-10-06T13:39:42.059Z,100789.50
2022-10-06T13:41:13.887Z,100786.53
2022-10-06T13:42:46.514Z,100782.13
2022-10-06T13:44:18.942Z,100782.94
2022-10-06T13:45:52.137Z,100787.78
2022-10-06T13:47:25.534Z,100785.66
2022-10-06T13:49:00.857Z,100784.81
2022-10-06T13:50:32.767Z,100788.22
2022-10-06T13:52:15.586Z,100789.63
2022-10-06T13:53:48.498Z,100790.34
2022-10-06T13:55:24.617Z,100782.13
2022-10-06T13:56:56.950Z,100788.50
2022-10-06T13:58:30.067Z,100792.16
2022-10-06T14:00:05.178Z,100790.22
2022-10-06T14:01:37.695Z,100788.88
2022-10-06T14:03:10.267Z,100783.34
2022-10-06T14:04:42.204Z,100782.63
2022-10-06T14:06:21.990Z,100787.97
2022-10-06T14:07:59.237Z,100787.06
2022-10-06T14:09:31.758Z,100789.00
2022-10-06T14:11:05.615Z,100788.81
2022-10-06T14:12:42.466Z,100798.38
2022-10-06T14:14:15.714Z,100787.31
2022-10-06T14:15:48.015Z,100797.03
2022-10-06T14:17:27.859Z,100792.91
2022-10-06T14:19:04.252Z,100794.28
2022-10-06T14:20:37.392Z,100791.38
2022-10-06T14:22:29.884Z,100792.84
2022-10-06T14:24:17.430Z,100802.38
2022-10-06T14:25:49.474Z,100799.50
2022-10-06T14:27:21.374Z,100793.69
2022-10-06T14:28:53.859Z,100802.50
2022-10-06T14:30:25.801Z,100796.03
2022-10-06T14:32:07.632Z,100805.47
2022-10-06T14:33:39.549Z,100801.78
2022-10-06T14:35:11.778Z,100800.91
2022-10-06T14:36:44.901Z,100804.25
2022-10-06T14:38:16.759Z,100800.06
2022-10-06T14:39:50.485Z,100792.41
2022-10-06T14:41:27.868Z,100803.34
2022-10-06T14:42:59.865Z,100794.97
2022-10-06T14:44:31.718Z,100792.88
2022-10-06T14:46:06.469Z,100796.38
2022-10-06T14:47:38.571Z,100800.56
2022-10-06T14:49:11.878Z,100803.25
2022-10-06T14:50:44.933Z,100794.25
2022-10-06T14:52:16.985Z,100796.88
2022-10-06T14:53:55.104Z,100803.66
2022-10-06T14:55:29.780Z,100803.56
2022-10-06T14:57:01.617Z,100804.78
2022-10-06T14:58:36.267Z,100795.56
2022-10-06T15:00:09.097Z,100802.34
2022-10-06T15:01:41.174Z,100793.84
2022-10-06T15:03:13.216Z,100799.16
2022-10-06T15:04:45.142Z,100804.38
2022-10-06T15:06:35.742Z,100802.72
2022-10-06T15:08:10.459Z,100805.19
2022-10-06T15:09:42.825Z,100812.53
2022-10-06T15:11:14.733Z,100808.84
2022-10-06T15:12:46.617Z,100812.13
2022-10-06T15:14:18.571Z,100809.88
2022-10-06T15:15:57.294Z,100807.69
2022-10-06T15:17:30.138Z,100811.56
2022-10-06T15:19:05.558Z,100805.81
2022-10-06T15:20:38.171Z,100808.38
2022-10-06T15:22:10.051Z,100807.44
2022-10-06T15:23:42.151Z,100807.22
2022-10-06T15:25:52.365Z,100809.69
2022-10-06T15:27:42.584Z,100806.47
2022-10-06T15:29:14.858Z,100808.16
2022-10-06T15:30:46.835Z,100811.22
2022-10-06T15:32:18.731Z,100820.47
2022-10-06T15:33:53.197Z,100809.13
2022-10-06T15:35:25.140Z,100808.78
2022-10-06T15:36:57.826Z,100818.16
2022-10-06T15:38:29.723Z,100812.88
2022-10-06T15:40:01.765Z,100811.84
2022-10-06T15:41:37.870Z,100818.44
2022-10-06T15:43:09.802Z,100817.38
2022-10-06T15:44:41.708Z,100819.06
2022-10-06T15:46:13.623Z,100824.81
2022-10-06T15:47:46.674Z,100823.63
2022-10-06T15:49:22.770Z,100827.94
2022-10-06T15:50:54.628Z,100819.81
2022-10-06T15:52:26.686Z,100825.31
2022-10-06T15:53:58.604Z,100824.13
2022-10-06T15:55:31.178Z,100826.97
2022-10-06T15:57:04.020Z,100825.78
2022-10-06T15:58:35.904Z,100830.06
2022-10-06T16:00:09.114Z,100826.81
2022-10-06T16:01:47.034Z,100833.84
2022-10-06T16:03:40.765Z,100828.44
2022-10-06T16:05:33.148Z,100829.81
2022-10-06T16:07:08.967Z,100836.13
2022-10-06T16:08:40.866Z,100837.66
2022-10-06T16:10:13.597Z,100839.16
2022-10-06T16:11:47.051Z,100837.91
2022-10-06T16:13:18.919Z,100838.09
2022-10-06T16:14:51.212Z,100839.75
2022-10-06T16:16:23.218Z,100845.41
2022-10-06T16:17:55.183Z,100840.13
2022-10-06T16:19:28.012Z,100852.06
2022-10-06T16:20:59.918Z,100846.72
2022-10-06T16:22:31.787Z,100852.97
2022-10-06T16:24:03.751Z,100857.22
2022-10-06T16:25:35.616Z,100853.19
2022-10-06T16:27:10.243Z,100858.84
2022-10-06T16:28:42.235Z,100859.75
2022-10-06T16:30:14.316Z,100853.09
2022-10-06T16:31:46.704Z,100856.56
2022-10-06T16:33:18.621Z,100859.50
2022-10-06T16:34:50.755Z,100859.78
2022-10-06T16:36:22.866Z,100858.50
2022-10-06T16:37:54.758Z,100858.66
2022-10-06T16:39:26.766Z,100868.47
2022-10-06T16:41:01.610Z,100863.31
2022-10-06T16:42:33.560Z,100872.38
2022-10-06T16:44:05.487Z,100871.94
2022-10-06T16:45:37.455Z,100870.81
2022-10-06T16:47:09.396Z,100878.03
2022-10-06T16:48:42.498Z,100878.31
2022-10-06T16:50:14.527Z,100882.03
2022-10-06T16:51:46.435Z,100879.56
2022-10-06T16:53:20.778Z,100888.09
2022-10-06T16:54:52.746Z,100887.06
2022-10-06T16:56:28.768Z,100881.09
2022-10-06T16:58:00.680Z,100887.59
2022-10-06T16:59:32.571Z,100886.56
2022-10-06T17:01:05.005Z,100886.97
2022-10-06T17:02:38.673Z,100890.88
2022-10-06T17:04:12.244Z,100894.06
2022-10-06T17:05:44.204Z,100888.41
2022-10-06T17:07:16.130Z,100892.28
2022-10-06T17:08:48.017Z,100889.81
2022-10-06T17:10:21.216Z,100890.94
2022-10-06T17:11:57.495Z,100888.63
2022-10-06T17:13:31.079Z,100889.06
2022-10-06T17:15:02.957Z,100892.78
2022-10-06T17:16:37.047Z,100897.38
2022-10-06T17:18:09.054Z,100900.38
2022-10-06T17:19:41.016Z,100898.78
2022-10-06T17:21:39.584Z,100897.16
2022-10-06T17:23:04.845Z,100902.31
2022-10-06T17:24:36.706Z,100891.78
2022-10-06T17:26:12.246Z,100895.50
2022-10-06T17:27:44.226Z,100900.09
2022-10-06T17:29:21.499Z,100893.75
2022-10-06T17:30:59.283Z,100906.38
2022-10-06T17:32:31.551Z,100899.88
2022-10-06T17:34:06.456Z,100901.00
2022-10-06T17:35:40.598Z,100903.44
2022-10-06T17:37:13.028Z,100905.28
2022-10-06T17:38:46.286Z,100898.22
2022-10-06T17:40:18.851Z,100895.84
2022-10-06T17:41:52.659Z,100898.47
2022-10-06T17:43:24.770Z,100895.53
2022-10-06T17:44:58.798Z,100907.06
2022-10-06T17:46:32.457Z,100898.69
2022-10-06T17:48:06.840Z,100905.31
2022-10-06T17:49:40.352Z,100906.56
2022-10-06T17:51:14.385Z,100904.25
2022-10-06T17:52:46.933Z,100910.28
2022-10-06T17:54:20.856Z,100908.84
2022-10-06T17:55:55.151Z,100910.47
2022-10-06T17:57:30.485Z,100909.53
2022-10-06T17:59:05.086Z,100906.69
2022-10-06T18:00:38.005Z,100906.50
2022-10-06T18:02:13.485Z,100905.78
2022-10-06T18:03:48.182Z,100900.16
2022-10-06T18:05:20.345Z,100902.00
2022-10-06T18:06:53.877Z,100908.19
2022-10-06T18:08:26.874Z,100906.59
2022-10-06T18:10:17.545Z,100911.34
2022-10-06T18:11:55.489Z,100913.19
2022-10-06T18:13:31.416Z,100910.25